sensor_id;sensor_type;location;lat;lon;timestamp;pressure;altitude;pressure_sealevel;temperature;humidity
62655;BME280;48717;55.556;37.816;2023-02-26T00:01:19;97110.25;;;-0.08;100.00
62655;BME280;48717;55.556;37.816;2023-02-26T00:03:50;97072.31;;;-0.18;100.00
62655;BME280;48717;55.556;37.816;2023-02-26T00:06:18;97099.03;;;-0.04;100.00
62655;BME280;48717;55.556;37.816;2023-02-26T00:08:46;97078.34;;;-0.11;100.00
62655;BME280;48717;55.556;37.816;2023-02-26T00:11:14;97031.75;;;-0.27;100.00
62655;BME280;48717;55.556;37.816;2023-02-26T00:13:43;97054.16;;;-0.06;100.00
62655;BME280;48717;55.556;37.816;2023-02-26T00:16:31;97052.41;;;-0.07;100.00
62655;BME280;48717;55.556;37.816;2023-02-26T00:19:01;97073.13;;;-0.07;100.00
62655;BME280;48717;55.556;37.816;2023-02-26T00:21:29;97061.03;;;-0.02;100.00
62655;BME280;48717;55.556;37.816;2023-02-26T00:23:58;97039.44;;;-0.02;100.00
62655;BME280;48717;55.556;37.816;2023-02-26T00:26:27;97007.56;;;-0.21;100.00
62655;BME280;48717;55.556;37.816;2023-02-26T00:28:56;97012.75;;;-0.15;100.00
62655;BME280;48717;55.556;37.816;2023-02-26T00:31:23;96978.25;;;-0.36;100.00
62655;BME280;48717;55.556;37.816;2023-02-26T00:33:52;96985.13;;;-0.24;100.00
62655;BME280;48717;55.556;37.816;2023-02-26T00:39:01;96985.91;;;-0.06;100.00
62655;BME280;48717;55.556;37.816;2023-02-26T00:41:32;96948.91;;;-0.35;100.00
62655;BME280;48717;55.556;37.816;2023-02-26T00:43:59;96985.09;;;-0.13;100.00
62655;BME280;48717;55.556;37.816;2023-02-26T00:49:31;96950.59;;;-0.21;100.00
62655;BME280;48717;55.556;37.816;2023-02-26T00:52:12;96967.00;;;-0.18;100.00
62655;BME280;48717;55.556;37.816;2023-02-26T00:54:40;96965.28;;;-0.22;100.00
62655;BME280;48717;55.556;37.816;2023-02-26T00:57:07;96913.59;;;-0.50;100.00
62655;BME280;48717;55.556;37.816;2023-02-26T00:59:34;96964.44;;;-0.32;100.00
62655;BME280;48717;55.556;37.816;2023-02-26T01:02:01;96970.50;;;-0.36;100.00
62655;BME280;48717;55.556;37.816;2023-02-26T01:04:28;96964.50;;;-0.54;100.00
62655;BME280;48717;55.556;37.816;2023-02-26T01:06:57;96985.19;;;-0.41;100.00
62655;BME280;48717;55.556;37.816;2023-02-26T01:09:33;96978.25;;;-0.41;100.00
62655;BME280;48717;55.556;37.816;2023-02-26T01:12:05;96969.66;;;-0.41;100.00
62655;BME280;48717;55.556;37.816;2023-02-26T01:14:33;96971.38;;;-0.45;100.00
62655;BME280;48717;55.556;37.816;2023-02-26T01:17:33;96965.34;;;-0.47;100.00
62655;BME280;48717;55.556;37.816;2023-02-26T01:20:10;96955.00;;;-0.48;100.00
62655;BME280;48717;55.556;37.816;2023-02-26T01:22:56;96938.59;;;-0.47;100.00
62655;BME280;48717;55.556;37.816;2023-02-26T01:25:29;96942.06;;;-0.48;100.00
62655;BME280;48717;55.556;37.816;2023-02-26T01:28:02;96936.03;;;-0.57;100.00
62655;BME280;48717;55.556;37.816;2023-02-26T01:30:29;96927.44;;;-0.65;100.00
62655;BME280;48717;55.556;37.816;2023-02-26T01:35:47;96936.88;;;-0.50;100.00
62655;BME280;48717;55.556;37.816;2023-02-26T01:38:42;96930.84;;;-0.50;100.00
62655;BME280;48717;55.556;37.816;2023-02-26T01:47:03;96917.91;;;-0.54;100.00
62655;BME280;48717;55.556;37.816;2023-02-26T01:49:32;96883.47;;;-0.68;100.00
62655;BME280;48717;55.556;37.816;2023-02-26T01:52:02;96884.31;;;-0.68;100.00
62655;BME280;48717;55.556;37.816;2023-02-26T01:54:34;96893.75;;;-0.53;100.00
62655;BME280;48717;55.556;37.816;2023-02-26T01:57:08;96881.72;;;-0.60;100.00
62655;BME280;48717;55.556;37.816;2023-02-26T01:59:40;96862.75;;;-0.70;100.00
62655;BME280;48717;55.556;37.816;2023-02-26T02:02:09;96881.63;;;-0.47;100.00
62655;BME280;48717;55.556;37.816;2023-02-26T02:04:39;96888.56;;;-0.46;100.00
62655;BME280;48717;55.556;37.816;2023-02-26T02:07:07;96869.56;;;-0.48;100.00
62655;BME280;48717;55.556;37.816;2023-02-26T02:09:34;96881.63;;;-0.41;100.00
62655;BME280;48717;55.556;37.816;2023-02-26T02:23:31;96882.47;;;-0.39;100.00
62655;BME280;48717;55.556;37.816;2023-02-26T02:28:57;96870.41;;;-0.43;100.00
62655;BME280;48717;55.556;37.816;2023-02-26T02:31:34;96868.69;;;-0.49;100.00
62655;BME280;48717;55.556;37.816;2023-02-26T02:34:18;96858.44;;;-0.69;100.00
62655;BME280;48717;55.556;37.816;2023-02-26T02:37:17;96856.69;;;-0.58;100.00
62655;BME280;48717;55.556;37.816;2023-02-26T02:39:51;96845.53;;;-0.79;100.00
62655;BME280;48717;55.556;37.816;2023-02-26T02:42:24;96824.84;;;-0.79;100.00
62655;BME280;48717;55.556;37.816;2023-02-26T02:44:57;96824.00;;;-0.79;100.00
62655;BME280;48717;55.556;37.816;2023-02-26T02:47:26;96838.59;;;-0.73;100.00
62655;BME280;48717;55.556;37.816;2023-02-26T02:50:08;96843.75;;;-0.61;100.00
62655;BME280;48717;55.556;37.816;2023-02-26T02:52:49;96814.50;;;-0.80;100.00
62655;BME280;48717;55.556;37.816;2023-02-26T02:55:29;96857.56;;;-0.59;100.00
62655;BME280;48717;55.556;37.816;2023-02-26T02:58:02;96852.38;;;-0.57;100.00
62655;BME280;48717;55.556;37.816;2023-02-26T03:00:34;96828.25;;;-0.67;100.00
62655;BME280;48717;55.556;37.816;2023-02-26T03:03:24;96852.34;;;-0.56;100.00
62655;BME280;48717;55.556;37.816;2023-02-26T03:05:52;96854.91;;;-0.53;100.00
62655;BME280;48717;55.556;37.816;2023-02-26T03:08:22;96848.88;;;-0.51;100.00
62655;BME280;48717;55.556;37.816;2023-02-26T03:10:51;96819.59;;;-0.63;100.00
62655;BME280;48717;55.556;37.816;2023-02-26T03:13:23;96829.91;;;-0.50;100.00
62655;BME280;48717;55.556;37.816;2023-02-26T03:19:22;96835.03;;;-0.44;100.00
62655;BME280;48717;55.556;37.816;2023-02-26T03:22:12;96840.22;;;-0.47;100.00
62655;BME280;48717;55.556;37.816;2023-02-26T03:24:58;96829.00;;;-0.45;100.00
62655;BME280;48717;55.556;37.816;2023-02-26T03:30:25;96804.91;;;-0.56;100.00
62655;BME280;48717;55.556;37.816;2023-02-26T03:36:21;96849.75;;;-0.48;100.00
62655;BME280;48717;55.556;37.816;2023-02-26T03:41:50;96851.47;;;-0.51;100.00
62655;BME280;48717;55.556;37.816;2023-02-26T03:47:02;96836.00;;;-0.70;100.00
62655;BME280;48717;55.556;37.816;2023-02-26T03:49:48;96854.97;;;-0.63;100.00
62655;BME280;48717;55.556;37.816;2023-02-26T03:52:20;96847.19;;;-0.65;100.00
62655;BME280;48717;55.556;37.816;2023-02-26T03:55:01;96856.69;;;-0.61;100.00
62655;BME280;48717;55.556;37.816;2023-02-26T03:57:59;96847.25;;;-0.70;100.00
62655;BME280;48717;55.556;37.816;2023-02-26T04:00:45;96876.50;;;-0.57;100.00
62655;BME280;48717;55.556;37.816;2023-02-26T04:03:20;96861.84;;;-0.62;100.00
62655;BME280;48717;55.556;37.816;2023-02-26T04:05:51;96860.19;;;-0.70;100.00
62655;BME280;48717;55.556;37.816;2023-02-26T04:08:20;96884.28;;;-0.55;100.00
62655;BME280;48717;55.556;37.816;2023-02-26T04:11:13;96895.50;;;-0.55;100.00
62655;BME280;48717;55.556;37.816;2023-02-26T04:13:38;96879.97;;;-0.55;100.00
62655;BME280;48717;55.556;37.816;2023-02-26T04:16:05;96844.69;;;-0.79;100.00
62655;BME280;48717;55.556;37.816;2023-02-26T04:18:33;96873.97;;;-0.66;100.00
62655;BME280;48717;55.556;37.816;2023-02-26T04:21:01;96904.09;;;-0.46;100.00
62655;BME280;48717;55.556;37.816;2023-02-26T04:23:29;96901.47;;;-0.45;100.00
62655;BME280;48717;55.556;37.816;2023-02-26T04:25:57;96888.56;;;-0.56;100.00
62655;BME280;48717;55.556;37.816;2023-02-26T04:28:25;96863.59;;;-0.63;100.00
62655;BME280;48717;55.556;37.816;2023-02-26T04:30:52;96890.28;;;-0.51;100.00
62655;BME280;48717;55.556;37.816;2023-02-26T04:33:19;96899.75;;;-0.43;100.00
62655;BME280;48717;55.556;37.816;2023-02-26T04:35:47;96917.84;;;-0.33;100.00
62655;BME280;48717;55.556;37.816;2023-02-26T04:38:15;96886.03;;;-0.59;100.00
62655;BME280;48717;55.556;37.816;2023-02-26T04:40:42;96932.47;;;-0.23;100.00
62655;BME280;48717;55.556;37.816;2023-02-26T04:43:12;96926.47;;;-0.36;100.00
62655;BME280;48717;55.556;37.816;2023-02-26T04:45:48;96941.97;;;-0.23;100.00
62655;BME280;48717;55.556;37.816;2023-02-26T04:48:16;96937.66;;;-0.26;100.00
62655;BME280;48717;55.556;37.816;2023-02-26T04:50:44;96954.00;;;-0.16;100.00
62655;BME280;48717;55.556;37.816;2023-02-26T04:53:11;96936.78;;;-0.27;100.00
62655;BME280;48717;55.556;37.816;2023-02-26T04:55:39;96972.13;;;-0.08;100.00
62655;BME280;48717;55.556;37.816;2023-02-26T04:58:07;96975.56;;;-0.06;100.00
62655;BME280;48717;55.556;37.816;2023-02-26T05:00:35;96963.44;;;-0.03;100.00
62655;BME280;48717;55.556;37.816;2023-02-26T05:03:02;96981.56;;;0.01;100.00
62655;BME280;48717;55.556;37.816;2023-02-26T05:05:29;96973.81;;;-0.03;100.00
62655;BME280;48717;55.556;37.816;2023-02-26T05:07:57;96958.34;;;-0.20;100.00
62655;BME280;48717;55.556;37.816;2023-02-26T05:10:24;96970.38;;;-0.09;100.00
62655;BME280;48717;55.556;37.816;2023-02-26T05:12:52;97010.09;;;-0.06;100.00
62655;BME280;48717;55.556;37.816;2023-02-26T05:15:19;96988.47;;;0.05;100.00
62655;BME280;48717;55.556;37.816;2023-02-26T05:17:48;97003.13;;;0.06;100.00
62655;BME280;48717;55.556;37.816;2023-02-26T05:20:15;97004.00;;;0.08;100.00
62655;BME280;48717;55.556;37.816;2023-02-26T05:22:42;96990.25;;;-0.10;100.00
62655;BME280;48717;55.556;37.816;2023-02-26T05:25:09;97010.06;;;0.01;100.00
62655;BME280;48717;55.556;37.816;2023-02-26T05:27:40;97020.41;;;0.10;100.00
62655;BME280;48717;55.556;37.816;2023-02-26T05:30:12;96997.19;;;-0.15;100.00
62655;BME280;48717;55.556;37.816;2023-02-26T05:32:42;97050.66;;;0.02;100.00
62655;BME280;48717;55.556;37.816;2023-02-26T05:35:09;97029.13;;;-0.08;100.00
62655;BME280;48717;55.556;37.816;2023-02-26T05:37:37;97053.28;;;0.00;100.00
62655;BME280;48717;55.556;37.816;2023-02-26T05:40:06;97022.25;;;-0.22;100.00
62655;BME280;48717;55.556;37.816;2023-02-26T05:42:36;97036.88;;;-0.10;100.00
62655;BME280;48717;55.556;37.816;2023-02-26T05:45:04;97061.91;;;-0.06;100.00
62655;BME280;48717;55.556;37.816;2023-02-26T05:47:33;97047.25;;;-0.13;100.00
62655;BME280;48717;55.556;37.816;2023-02-26T05:50:00;97050.72;;;-0.11;100.00
62655;BME280;48717;55.556;37.816;2023-02-26T05:52:29;97002.47;;;-0.46;100.00
62655;BME280;48717;55.556;37.816;2023-02-26T05:54:56;97061.03;;;-0.09;100.00
62655;BME280;48717;55.556;37.816;2023-02-26T05:57:23;97080.06;;;-0.12;100.00
62655;BME280;48717;55.556;37.816;2023-02-26T05:59:50;97055.91;;;-0.17;100.00
62655;BME280;48717;55.556;37.816;2023-02-26T06:02:18;97068.81;;;-0.08;100.00
62655;BME280;48717;55.556;37.816;2023-02-26T06:04:45;97077.47;;;-0.06;100.00
62655;BME280;48717;55.556;37.816;2023-02-26T06:07:13;97071.41;;;-0.08;100.00
62655;BME280;48717;55.556;37.816;2023-02-26T06:09:40;97073.19;;;-0.19;100.00
62655;BME280;48717;55.556;37.816;2023-02-26T06:12:07;97081.75;;;-0.08;100.00
62655;BME280;48717;55.556;37.816;2023-02-26T06:14:34;97074.03;;;-0.19;100.00
62655;BME280;48717;55.556;37.816;2023-02-26T06:17:03;97086.94;;;-0.08;100.00
62655;BME280;48717;55.556;37.816;2023-02-26T06:19:30;97043.84;;;-0.34;100.00
62655;BME280;48717;55.556;37.816;2023-02-26T06:21:57;97098.19;;;-0.04;100.00
62655;BME280;48717;55.556;37.816;2023-02-26T06:24:24;97108.53;;;-0.03;100.00
62655;BME280;48717;55.556;37.816;2023-02-26T06:26:52;97094.72;;;-0.02;100.00
62655;BME280;48717;55.556;37.816;2023-02-26T06:29:19;97081.75;;;-0.08;100.00
62655;BME280;48717;55.556;37.816;2023-02-26T06:31:46;97093.84;;;-0.07;100.00
62655;BME280;48717;55.556;37.816;2023-02-26T06:34:17;97111.13;;;0.04;100.00
62655;BME280;48717;55.556;37.816;2023-02-26T06:36:44;97086.91;;;0.02;100.00
62655;BME280;48717;55.556;37.816;2023-02-26T06:39:11;97102.47;;;0.05;100.00
62655;BME280;48717;55.556;37.816;2023-02-26T06:41:38;97133.53;;;0.20;100.00
62655;BME280;48717;55.556;37.816;2023-02-26T06:44:09;97131.78;;;0.22;100.00
62655;BME280;48717;55.556;37.816;2023-02-26T06:46:39;97116.28;;;0.07;100.00
62655;BME280;48717;55.556;37.816;2023-02-26T06:49:06;97101.59;;;0.09;99.99
62655;BME280;48717;55.556;37.816;2023-02-26T06:51:34;97150.78;;;0.31;100.00
62655;BME280;48717;55.556;37.816;2023-02-26T06:54:01;97138.66;;;0.33;98.43
62655;BME280;48717;55.556;37.816;2023-02-26T06:56:28;97142.16;;;0.19;98.42
62655;BME280;48717;55.556;37.816;2023-02-26T06:58:56;97137.91;;;0.01;98.41
62655;BME280;48717;55.556;37.816;2023-02-26T07:01:23;97168.06;;;0.19;97.70
62655;BME280;48717;55.556;37.816;2023-02-26T07:03:50;97175.00;;;0.17;97.57
62655;BME280;48717;55.556;37.816;2023-02-26T07:06:18;97159.44;;;0.14;98.16
62655;BME280;48717;55.556;37.816;2023-02-26T07:08:54;97181.91;;;0.18;98.44
62655;BME280;48717;55.556;37.816;2023-02-26T07:11:21;97149.13;;;0.00;98.96
62655;BME280;48717;55.556;37.816;2023-02-26T07:13:49;97156.88;;;0.08;98.29
62655;BME280;48717;55.556;37.816;2023-02-26T07:16:17;97182.78;;;0.20;99.51
62655;BME280;48717;55.556;37.816;2023-02-26T07:18:48;97180.19;;;0.14;98.42
62655;BME280;48717;55.556;37.816;2023-02-26T07:21:15;97188.81;;;0.16;98.17
62655;BME280;48717;55.556;37.816;2023-02-26T07:23:42;97185.34;;;0.14;97.67
62655;BME280;48717;55.556;37.816;2023-02-26T07:26:09;97169.00;;;-0.08;97.77
62655;BME280;48717;55.556;37.816;2023-02-26T07:28:36;97170.69;;;0.01;97.80
62655;BME280;48717;55.556;37.816;2023-02-26T07:31:04;97187.09;;;0.12;98.17
62655;BME280;48717;55.556;37.816;2023-02-26T07:33:31;97183.63;;;0.10;98.21
62655;BME280;48717;55.556;37.816;2023-02-26T07:36:01;97165.53;;;-0.07;98.37
62655;BME280;48717;55.556;37.816;2023-02-26T07:38:28;97187.09;;;0.09;98.46
62655;BME280;48717;55.556;37.816;2023-02-26T07:40:55;97190.56;;;-0.05;97.88
62655;BME280;48717;55.556;37.816;2023-02-26T07:43:23;97221.63;;;0.14;97.15
62655;BME280;48717;55.556;37.816;2023-02-26T07:45:51;97206.09;;;0.20;97.14
62655;BME280;48717;55.556;37.816;2023-02-26T07:48:19;97214.72;;;0.22;97.15
62655;BME280;48717;55.556;37.816;2023-02-26T07:50:46;97204.34;;;0.19;96.71
62655;BME280;48717;55.556;37.816;2023-02-26T07:53:13;97211.25;;;0.36;96.13
62655;BME280;48717;55.556;37.816;2023-02-26T07:55:41;97206.03;;;0.47;97.20
62655;BME280;48717;55.556;37.816;2023-02-26T07:58:08;97202.59;;;0.40;96.62
62655;BME280;48717;55.556;37.816;2023-02-26T08:00:36;97228.47;;;0.62;94.81
62655;BME280;48717;55.556;37.816;2023-02-26T08:03:03;97223.34;;;0.43;92.33
62655;BME280;48717;55.556;37.816;2023-02-26T08:05:30;97229.34;;;0.55;92.70
62655;BME280;48717;55.556;37.816;2023-02-26T08:07:57;97213.84;;;0.37;93.11
62655;BME280;48717;55.556;37.816;2023-02-26T08:10:25;97204.34;;;0.32;92.94
62655;BME280;48717;55.556;37.816;2023-02-26T08:12:52;97218.16;;;0.40;93.33
62655;BME280;48717;55.556;37.816;2023-02-26T08:15:19;97218.16;;;0.34;93.88
62655;BME280;48717;55.556;37.816;2023-02-26T08:17:51;97231.13;;;0.18;93.95
62655;BME280;48717;55.556;37.816;2023-02-26T08:20:19;97244.06;;;0.40;93.64
62655;BME280;48717;55.556;37.816;2023-02-26T08:22:46;97243.22;;;0.38;92.78
62655;BME280;48717;55.556;37.816;2023-02-26T08:25:15;97212.13;;;0.25;93.70
62655;BME280;48717;55.556;37.816;2023-02-26T08:27:43;97248.38;;;0.47;93.88
62655;BME280;48717;55.556;37.816;2023-02-26T08:30:11;97270.84;;;0.48;93.00
62655;BME280;48717;55.556;37.816;2023-02-26T08:32:39;97258.75;;;0.30;91.34
62655;BME280;48717;55.556;37.816;2023-02-26T08:35:09;97269.13;;;0.46;91.66
62655;BME280;48717;55.556;37.816;2023-02-26T08:37:37;97250.13;;;0.36;92.32
62655;BME280;48717;55.556;37.816;2023-02-26T08:40:06;97242.34;;;0.36;92.17
62655;BME280;48717;55.556;37.816;2023-02-26T08:42:35;97283.78;;;0.58;91.20
62655;BME280;48717;55.556;37.816;2023-02-26T08:45:03;97246.63;;;0.49;91.95
62655;BME280;48717;55.556;37.816;2023-02-26T08:47:30;97293.25;;;0.85;89.36
62655;BME280;48717;55.556;37.816;2023-02-26T08:49:59;97296.69;;;0.92;87.19
62655;BME280;48717;55.556;37.816;2023-02-26T08:52:29;97299.22;;;1.11;83.98
62655;BME280;48717;55.556;37.816;2023-02-26T08:54:57;97261.13;;;1.14;82.41
62655;BME280;48717;55.556;37.816;2023-02-26T08:57:24;97325.03;;;1.45;79.00
62655;BME280;48717;55.556;37.816;2023-02-26T08:59:52;97262.03;;;1.06;78.72
62655;BME280;48717;55.556;37.816;2023-02-26T09:02:19;97297.50;;;1.07;80.14
62655;BME280;48717;55.556;37.816;2023-02-26T09:04:47;97318.22;;;1.13;79.96
62655;BME280;48717;55.556;37.816;2023-02-26T09:07:14;97347.66;;;1.09;81.52
62655;BME280;48717;55.556;37.816;2023-02-26T09:09:42;97276.03;;;0.61;81.12
62655;BME280;48717;55.556;37.816;2023-02-26T09:12:10;97321.75;;;0.88;81.60
62655;BME280;48717;55.556;37.816;2023-02-26T09:14:37;97323.56;;;0.68;82.29
62655;BME280;48717;55.556;37.816;2023-02-26T09:17:04;97309.72;;;0.45;83.67
62655;BME280;48717;55.556;37.816;2023-02-26T09:19:32;97334.81;;;0.45;84.01
62655;BME280;48717;55.556;37.816;2023-02-26T09:22:00;97314.94;;;0.30;84.44
62655;BME280;48717;55.556;37.816;2023-02-26T09:24:27;97356.44;;;0.51;84.98
62655;BME280;48717;55.556;37.816;2023-02-26T09:26:55;97359.84;;;0.41;85.59
62655;BME280;48717;55.556;37.816;2023-02-26T09:29:23;97365.94;;;0.43;86.37
62655;BME280;48717;55.556;37.816;2023-02-26T09:31:50;97362.44;;;0.41;86.71
62655;BME280;48717;55.556;37.816;2023-02-26T09:34:18;97378.88;;;0.31;84.20
62655;BME280;48717;55.556;37.816;2023-02-26T09:36:46;97339.13;;;0.21;85.04
62655;BME280;48717;55.556;37.816;2023-02-26T09:39:14;97368.50;;;0.42;84.71
62655;BME280;48717;55.556;37.816;2023-02-26T09:41:51;97352.97;;;0.24;83.26
62655;BME280;48717;55.556;37.816;2023-02-26T09:47:08;97371.13;;;0.54;81.57
62655;BME280;48717;55.556;37.816;2023-02-26T09:50:00;97368.50;;;0.46;79.93
62655;BME280;48717;55.556;37.816;2023-02-26T09:55:38;97361.59;;;0.33;79.70
62655;BME280;48717;55.556;37.816;2023-02-26T09:58:30;97359.00;;;0.36;76.12
62655;BME280;48717;55.556;37.816;2023-02-26T10:01:16;97409.13;;;0.55;76.27
62655;BME280;48717;55.556;37.816;2023-02-26T10:04:13;97425.56;;;0.59;73.04
62655;BME280;48717;55.556;37.816;2023-02-26T10:12:19;97413.47;;;0.80;69.69
62655;BME280;48717;55.556;37.816;2023-02-26T10:17:38;97442.88;;;0.91;66.97
62655;BME280;48717;55.556;37.816;2023-02-26T10:20:27;97403.94;;;0.83;66.95
62655;BME280;48717;55.556;37.816;2023-02-26T10:23:31;97418.66;;;0.94;65.83
62655;BME280;48717;55.556;37.816;2023-02-26T10:28:36;97429.00;;;1.01;65.44
62655;BME280;48717;55.556;37.816;2023-02-26T10:50:55;97418.63;;;0.76;68.63
62655;BME280;48717;55.556;37.816;2023-02-26T10:53:33;97409.13;;;0.72;68.45
62655;BME280;48717;55.556;37.816;2023-02-26T10:56:09;97451.47;;;0.99;70.55
62655;BME280;48717;55.556;37.816;2023-02-26T10:58:42;97453.25;;;0.91;71.33
62655;BME280;48717;55.556;37.816;2023-02-26T11:01:17;97440.28;;;0.91;72.20
62655;BME280;48717;55.556;37.816;2023-02-26T11:04:15;97411.72;;;0.63;72.96
62655;BME280;48717;55.556;37.816;2023-02-26T11:06:54;97423.84;;;0.73;73.57
62655;BME280;48717;55.556;37.816;2023-02-26T11:09:33;97455.81;;;0.85;74.08
62655;BME280;48717;55.556;37.816;2023-02-26T11:14:41;97450.63;;;0.85;75.48
62655;BME280;48717;55.556;37.816;2023-02-26T11:17:15;97442.88;;;0.78;75.48
62655;BME280;48717;55.556;37.816;2023-02-26T11:20:46;97456.69;;;0.71;75.75
62655;BME280;48717;55.556;37.816;2023-02-26T11:23:13;97427.28;;;0.57;76.01
62655;BME280;48717;55.556;37.816;2023-02-26T11:25:43;97437.66;;;0.75;76.37
62655;BME280;48717;55.556;37.816;2023-02-26T11:28:24;97470.53;;;0.76;75.68
62655;BME280;48717;55.556;37.816;2023-02-26T11:30:52;97466.22;;;0.75;76.24
62655;BME280;48717;55.556;37.816;2023-02-26T11:33:23;97471.38;;;0.72;77.91
62655;BME280;48717;55.556;37.816;2023-02-26T11:35:58;97467.94;;;0.73;77.80
62655;BME280;48717;55.556;37.816;2023-02-26T11:38:27;97454.97;;;0.61;76.90
62655;BME280;48717;55.556;37.816;2023-02-26T11:40:56;97477.44;;;0.56;77.26
62655;BME280;48717;55.556;37.816;2023-02-26T11:43:26;97477.47;;;0.67;78.44
62655;BME280;48717;55.556;37.816;2023-02-26T11:46:01;97473.09;;;0.65;77.99
62655;BME280;48717;55.556;37.816;2023-02-26T11:48:42;97487.81;;;0.62;78.79
62655;BME280;48717;55.556;37.816;2023-02-26T11:51:17;97467.91;;;0.50;79.99
62655;BME280;48717;55.556;37.816;2023-02-26T11:58:54;97357.22;;;-0.26;80.58
62655;BME280;48717;55.556;37.816;2023-02-26T12:04:24;97498.19;;;0.68;81.32
62655;BME280;48717;55.556;37.816;2023-02-26T12:06:55;97332.16;;;-0.22;78.87
62655;BME280;48717;55.556;37.816;2023-02-26T12:09:29;97394.41;;;0.12;79.85
62655;BME280;48717;55.556;37.816;2023-02-26T12:15:04;97476.59;;;0.80;78.52
62655;BME280;48717;55.556;37.816;2023-02-26T12:17:57;97480.06;;;0.95;78.24
62655;BME280;48717;55.556;37.816;2023-02-26T12:31:40;97480.03;;;0.99;76.00
62655;BME280;48717;55.556;37.816;2023-02-26T12:37:49;97463.63;;;0.88;73.85
62655;BME280;48717;55.556;37.816;2023-02-26T12:43:19;97479.16;;;0.72;73.30
62655;BME280;48717;55.556;37.816;2023-02-26T12:46:01;97498.19;;;0.99;72.09
62655;BME280;48717;55.556;37.816;2023-02-26T12:51:36;97490.41;;;0.99;72.43
62655;BME280;48717;55.556;37.816;2023-02-26T12:59:55;97536.28;;;1.00;73.28
62655;BME280;48717;55.556;37.816;2023-02-26T13:16:32;97572.88;;;-0.50;96.47
62655;BME280;48717;55.556;37.816;2023-02-26T13:19:30;97575.44;;;-0.54;97.25
62655;BME280;48717;55.556;37.816;2023-02-26T13:22:12;97416.84;;;-1.56;97.06
62655;BME280;48717;55.556;37.816;2023-02-26T13:24:43;97591.78;;;-0.59;96.91
62655;BME280;48717;55.556;37.816;2023-02-26T13:27:14;97499.00;;;-1.21;97.75
62655;BME280;48717;55.556;37.816;2023-02-26T13:32:58;97479.88;;;-1.42;97.31
62655;BME280;48717;55.556;37.816;2023-02-26T13:35:36;97528.47;;;-1.03;97.61
62655;BME280;48717;55.556;37.816;2023-02-26T13:47:10;97596.88;;;-0.69;100.00
62655;BME280;48717;55.556;37.816;2023-02-26T13:52:55;97491.72;;;-1.63;99.48
62655;BME280;48717;55.556;37.816;2023-02-26T13:55:45;97628.75;;;-0.77;100.00
62655;BME280;48717;55.556;37.816;2023-02-26T13:58:30;97637.34;;;-0.79;98.49
62655;BME280;48717;55.556;37.816;2023-02-26T14:01:17;97554.09;;;-1.28;97.99
62655;BME280;48717;55.556;37.816;2023-02-26T14:04:07;97482.00;;;-1.87;97.43
62655;BME280;48717;55.556;37.816;2023-02-26T14:10:53;97523.41;;;-1.81;98.47
62655;BME280;48717;55.556;37.816;2023-02-26T14:20:40;97566.22;;;-2.00;93.58
62655;BME280;48717;55.556;37.816;2023-02-26T14:23:38;97515.16;;;-2.23;93.90
62655;BME280;48717;55.556;37.816;2023-02-26T14:26:43;97667.00;;;-1.30;94.37
62655;BME280;48717;55.556;37.816;2023-02-26T14:34:30;97700.56;;;-1.34;94.02
62655;BME280;48717;55.556;37.816;2023-02-26T14:37:33;97622.25;;;-1.96;93.67
62655;BME280;48717;55.556;37.816;2023-02-26T14:40:19;97524.88;;;-2.67;82.14
62655;BME280;48717;55.556;37.816;2023-02-26T14:43:39;97707.06;;;-1.64;81.17
62655;BME280;48717;55.556;37.816;2023-02-26T14:46:25;97669.50;;;-2.03;79.17
62655;BME280;48717;55.556;37.816;2023-02-26T14:48:58;97583.31;;;-2.70;79.08
62655;BME280;48717;55.556;37.816;2023-02-26T15:00:38;97689.31;;;-2.04;75.06
62655;BME280;48717;55.556;37.816;2023-02-26T15:11:51;97778.47;;;-1.71;70.07
62655;BME280;48717;55.556;37.816;2023-02-26T15:14:44;97773.19;;;-1.78;70.60
62655;BME280;48717;55.556;37.816;2023-02-26T15:25:43;97669.66;;;-2.48;68.53
62655;BME280;48717;55.556;37.816;2023-02-26T15:28:29;97682.38;;;-2.60;71.94
62655;BME280;48717;55.556;37.816;2023-02-26T15:31:00;97815.19;;;-1.92;71.09
62655;BME280;48717;55.556;37.816;2023-02-26T15:33:29;97834.91;;;-1.95;70.51
62655;BME280;48717;55.556;37.816;2023-02-26T15:35:59;97830.47;;;-2.04;72.68
62655;BME280;48717;55.556;37.816;2023-02-26T15:38:43;97758.16;;;-2.54;73.40
62655;BME280;48717;55.556;37.816;2023-02-26T15:41:13;97719.19;;;-2.71;73.22
62655;BME280;48717;55.556;37.816;2023-02-26T15:43:49;97720.84;;;-2.73;73.32
62655;BME280;48717;55.556;37.816;2023-02-26T15:46:24;97782.41;;;-2.45;72.90
62655;BME280;48717;55.556;37.816;2023-02-26T15:49:07;97773.88;;;-2.41;74.04
62655;BME280;48717;55.556;37.816;2023-02-26T15:51:39;97861.16;;;-2.20;74.45
62655;BME280;48717;55.556;37.816;2023-02-26T15:54:15;97769.06;;;-2.69;75.33
62655;BME280;48717;55.556;37.816;2023-02-26T15:56:48;97822.97;;;-2.40;75.18
62655;BME280;48717;55.556;37.816;2023-02-26T15:59:27;97790.66;;;-2.65;75.29
62655;BME280;48717;55.556;37.816;2023-02-26T16:01:57;97798.28;;;-2.71;75.73
62655;BME280;48717;55.556;37.816;2023-02-26T16:04:27;97837.44;;;-2.48;75.79
62655;BME280;48717;55.556;37.816;2023-02-26T16:07:00;97706.06;;;-3.28;75.70
62655;BME280;48717;55.556;37.816;2023-02-26T16:09:34;97819.06;;;-2.65;76.58
62655;BME280;48717;55.556;37.816;2023-02-26T16:12:18;97757.88;;;-3.16;75.82
62655;BME280;48717;55.556;37.816;2023-02-26T16:14:53;97816.34;;;-2.71;75.29
62655;BME280;48717;55.556;37.816;2023-02-26T16:17:32;97705.88;;;-3.37;75.53
62655;BME280;48717;55.556;37.816;2023-02-26T16:20:04;97892.72;;;-2.37;75.76
62655;BME280;48717;55.556;37.816;2023-02-26T16:22:41;97731.75;;;-3.31;75.68
62655;BME280;48717;55.556;37.816;2023-02-26T16:25:51;97779.13;;;-2.84;75.93
62655;BME280;48717;55.556;37.816;2023-02-26T16:30:51;97919.50;;;-2.31;75.33
62655;BME280;48717;55.556;37.816;2023-02-26T16:33:23;97839.47;;;-2.76;74.28
62655;BME280;48717;55.556;37.816;2023-02-26T16:36:11;97928.75;;;-2.41;74.47